sensor_id;sensor_type;location;lat;lon;timestamp;P1;durP1;ratioP1;P2;durP2;ratioP2
21886;SDS011;11108;49.988;8.182;2023-12-29T00:01:11;6.07;;;5.63;;
21886;SDS011;11108;49.988;8.182;2023-12-29T00:03:36;4.87;;;4.53;;
21886;SDS011;11108;49.988;8.182;2023-12-29T00:06:02;5.10;;;4.80;;
21886;SDS011;11108;49.988;8.182;2023-12-29T00:08:27;5.27;;;4.80;;
21886;SDS011;11108;49.988;8.182;2023-12-29T00:10:52;5.53;;;5.13;;
21886;SDS011;11108;49.988;8.182;2023-12-29T00:13:18;5.40;;;5.00;;
21886;SDS011;11108;49.988;8.182;2023-12-29T00:15:47;4.90;;;4.60;;
21886;SDS011;11108;49.988;8.182;2023-12-29T00:18:15;4.70;;;4.40;;
21886;SDS011;11108;49.988;8.182;2023-12-29T00:20:40;4.97;;;4.57;;
21886;SDS011;11108;49.988;8.182;2023-12-29T00:23:05;4.80;;;4.23;;
21886;SDS011;11108;49.988;8.182;2023-12-29T00:25:31;4.70;;;4.40;;
21886;SDS011;11108;49.988;8.182;2023-12-29T00:27:56;4.97;;;4.57;;
21886;SDS011;11108;49.988;8.182;2023-12-29T00:30:22;5.10;;;4.63;;
21886;SDS011;11108;49.988;8.182;2023-12-29T00:32:47;4.00;;;3.70;;
21886;SDS011;11108;49.988;8.182;2023-12-29T00:35:12;4.43;;;4.03;;
21886;SDS011;11108;49.988;8.182;2023-12-29T00:37:38;4.73;;;4.33;;
21886;SDS011;11108;49.988;8.182;2023-12-29T00:40:03;3.97;;;3.57;;
21886;SDS011;11108;49.988;8.182;2023-12-29T00:42:30;3.60;;;3.37;;
21886;SDS011;11108;49.988;8.182;2023-12-29T00:44:55;4.33;;;3.93;;
21886;SDS011;11108;49.988;8.182;2023-12-29T00:47:20;3.90;;;3.60;;
21886;SDS011;11108;49.988;8.182;2023-12-29T00:49:48;4.37;;;3.97;;
21886;SDS011;11108;49.988;8.182;2023-12-29T00:52:13;3.57;;;3.33;;
21886;SDS011;11108;49.988;8.182;2023-12-29T00:54:39;4.13;;;3.77;;
21886;SDS011;11108;49.988;8.182;2023-12-29T00:57:04;3.50;;;3.30;;
21886;SDS011;11108;49.988;8.182;2023-12-29T00:59:30;3.30;;;3.10;;
21886;SDS011;11108;49.988;8.182;2023-12-29T01:01:55;2.87;;;2.67;;
21886;SDS011;11108;49.988;8.182;2023-12-29T01:04:20;3.50;;;3.30;;
21886;SDS011;11108;49.988;8.182;2023-12-29T01:06:45;3.30;;;3.10;;
21886;SDS011;11108;49.988;8.182;2023-12-29T01:09:10;3.30;;;3.10;;
21886;SDS011;11108;49.988;8.182;2023-12-29T01:11:36;3.27;;;3.00;;
21886;SDS011;11108;49.988;8.182;2023-12-29T01:14:02;3.20;;;3.00;;
21886;SDS011;11108;49.988;8.182;2023-12-29T01:16:27;2.90;;;2.70;;
21886;SDS011;11108;49.988;8.182;2023-12-29T01:18:52;3.30;;;3.00;;
21886;SDS011;11108;49.988;8.182;2023-12-29T01:21:17;3.37;;;3.07;;
21886;SDS011;11108;49.988;8.182;2023-12-29T01:23:43;2.80;;;2.53;;
21886;SDS011;11108;49.988;8.182;2023-12-29T01:26:08;2.80;;;2.60;;
21886;SDS011;11108;49.988;8.182;2023-12-29T01:28:33;2.97;;;2.50;;
21886;SDS011;11108;49.988;8.182;2023-12-29T01:30:59;2.70;;;2.50;;
21886;SDS011;11108;49.988;8.182;2023-12-29T01:33:24;2.67;;;2.50;;
21886;SDS011;11108;49.988;8.182;2023-12-29T01:35:49;2.63;;;2.43;;
21886;SDS011;11108;49.988;8.182;2023-12-29T01:38:14;2.23;;;2.03;;
21886;SDS011;11108;49.988;8.182;2023-12-29T01:40:43;2.40;;;2.20;;
21886;SDS011;11108;49.988;8.182;2023-12-29T01:43:09;3.07;;;2.87;;
21886;SDS011;11108;49.988;8.182;2023-12-29T01:45:34;2.50;;;2.30;;
21886;SDS011;11108;49.988;8.182;2023-12-29T01:47:59;2.83;;;2.63;;
21886;SDS011;11108;49.988;8.182;2023-12-29T01:50:24;2.17;;;2.07;;
21886;SDS011;11108;49.988;8.182;2023-12-29T01:52:50;2.87;;;2.33;;
21886;SDS011;11108;49.988;8.182;2023-12-29T01:55:17;2.63;;;2.43;;
21886;SDS011;11108;49.988;8.182;2023-12-29T01:57:43;2.00;;;1.90;;
21886;SDS011;11108;49.988;8.182;2023-12-29T02:00:08;2.10;;;2.00;;
21886;SDS011;11108;49.988;8.182;2023-12-29T02:02:34;2.27;;;2.07;;
21886;SDS011;11108;49.988;8.182;2023-12-29T02:05:00;2.50;;;2.30;;
21886;SDS011;11108;49.988;8.182;2023-12-29T02:07:26;2.40;;;1.77;;
21886;SDS011;11108;49.988;8.182;2023-12-29T02:09:54;1.77;;;1.67;;
21886;SDS011;11108;49.988;8.182;2023-12-29T02:12:20;2.00;;;1.90;;
21886;SDS011;11108;49.988;8.182;2023-12-29T02:14:45;1.83;;;1.73;;
21886;SDS011;11108;49.988;8.182;2023-12-29T02:17:10;1.80;;;1.70;;
21886;SDS011;11108;49.988;8.182;2023-12-29T02:22:04;2.00;;;1.90;;
21886;SDS011;11108;49.988;8.182;2023-12-29T02:24:30;1.70;;;1.60;;
21886;SDS011;11108;49.988;8.182;2023-12-29T02:29:39;1.73;;;1.63;;
21886;SDS011;11108;49.988;8.182;2023-12-29T02:32:06;1.47;;;1.37;;
21886;SDS011;11108;49.988;8.182;2023-12-29T02:34:33;1.73;;;1.63;;
21886;SDS011;11108;49.988;8.182;2023-12-29T02:36:59;1.80;;;1.70;;
21886;SDS011;11108;49.988;8.182;2023-12-29T02:39:24;1.83;;;1.73;;
21886;SDS011;11108;49.988;8.182;2023-12-29T02:41:50;1.70;;;1.60;;
21886;SDS011;11108;49.988;8.182;2023-12-29T02:44:15;1.20;;;1.20;;
21886;SDS011;11108;49.988;8.182;2023-12-29T02:46:40;1.40;;;1.40;;
21886;SDS011;11108;49.988;8.182;2023-12-29T02:49:06;1.53;;;1.43;;
21886;SDS011;11108;49.988;8.182;2023-12-29T02:51:36;1.57;;;1.47;;
21886;SDS011;11108;49.988;8.182;2023-12-29T02:54:01;1.83;;;1.73;;
21886;SDS011;11108;49.988;8.182;2023-12-29T02:56:26;1.20;;;1.20;;
21886;SDS011;11108;49.988;8.182;2023-12-29T02:58:51;1.37;;;1.27;;
21886;SDS011;11108;49.988;8.182;2023-12-29T03:01:17;1.70;;;1.60;;
21886;SDS011;11108;49.988;8.182;2023-12-29T03:03:42;1.33;;;1.23;;
21886;SDS011;11108;49.988;8.182;2023-12-29T03:06:08;1.50;;;1.40;;
21886;SDS011;11108;49.988;8.182;2023-12-29T03:08:33;1.77;;;1.70;;
21886;SDS011;11108;49.988;8.182;2023-12-29T03:10:58;1.30;;;1.30;;
21886;SDS011;11108;49.988;8.182;2023-12-29T03:13:24;1.57;;;1.47;;
21886;SDS011;11108;49.988;8.182;2023-12-29T03:15:49;1.40;;;1.20;;
21886;SDS011;11108;49.988;8.182;2023-12-29T03:18:14;1.63;;;1.57;;
21886;SDS011;11108;49.988;8.182;2023-12-29T03:20:40;1.20;;;1.20;;
21886;SDS011;11108;49.988;8.182;2023-12-29T03:23:05;1.23;;;1.20;;
21886;SDS011;11108;49.988;8.182;2023-12-29T03:25:30;1.27;;;1.20;;
21886;SDS011;11108;49.988;8.182;2023-12-29T03:27:55;1.20;;;1.20;;
21886;SDS011;11108;49.988;8.182;2023-12-29T03:30:20;1.27;;;1.27;;
21886;SDS011;11108;49.988;8.182;2023-12-29T03:32:46;1.30;;;1.30;;
21886;SDS011;11108;49.988;8.182;2023-12-29T03:35:11;1.63;;;1.53;;
21886;SDS011;11108;49.988;8.182;2023-12-29T03:37:37;1.40;;;1.40;;
21886;SDS011;11108;49.988;8.182;2023-12-29T03:40:02;1.33;;;1.33;;
21886;SDS011;11108;49.988;8.182;2023-12-29T03:42:28;1.63;;;1.53;;
21886;SDS011;11108;49.988;8.182;2023-12-29T03:44:53;1.40;;;1.30;;
21886;SDS011;11108;49.988;8.182;2023-12-29T03:47:18;1.30;;;1.20;;
21886;SDS011;11108;49.988;8.182;2023-12-29T03:49:43;1.40;;;1.30;;
21886;SDS011;11108;49.988;8.182;2023-12-29T03:52:08;1.50;;;1.17;;
21886;SDS011;11108;49.988;8.182;2023-12-29T03:54:34;1.47;;;1.37;;
21886;SDS011;11108;49.988;8.182;2023-12-29T03:56:59;1.33;;;1.33;;
21886;SDS011;11108;49.988;8.182;2023-12-29T03:59:24;1.30;;;1.20;;
21886;SDS011;11108;49.988;8.182;2023-12-29T04:01:49;1.23;;;1.10;;
21886;SDS011;11108;49.988;8.182;2023-12-29T04:04:14;1.40;;;1.17;;
21886;SDS011;11108;49.988;8.182;2023-12-29T04:06:40;1.40;;;1.30;;
21886;SDS011;11108;49.988;8.182;2023-12-29T04:09:05;1.50;;;1.40;;
21886;SDS011;11108;49.988;8.182;2023-12-29T04:11:30;0.80;;;0.80;;
21886;SDS011;11108;49.988;8.182;2023-12-29T04:13:55;1.20;;;1.17;;
21886;SDS011;11108;49.988;8.182;2023-12-29T04:16:21;1.43;;;1.33;;
21886;SDS011;11108;49.988;8.182;2023-12-29T04:18:46;1.20;;;1.00;;
21886;SDS011;11108;49.988;8.182;2023-12-29T04:21:14;1.10;;;1.10;;
21886;SDS011;11108;49.988;8.182;2023-12-29T04:23:40;1.27;;;1.17;;
21886;SDS011;11108;49.988;8.182;2023-12-29T04:26:06;1.07;;;1.07;;
21886;SDS011;11108;49.988;8.182;2023-12-29T04:28:32;1.10;;;1.10;;
21886;SDS011;11108;49.988;8.182;2023-12-29T04:30:57;1.07;;;1.03;;
21886;SDS011;11108;49.988;8.182;2023-12-29T04:33:22;1.17;;;1.17;;
21886;SDS011;11108;49.988;8.182;2023-12-29T04:35:47;1.07;;;1.07;;
21886;SDS011;11108;49.988;8.182;2023-12-29T04:38:13;1.37;;;0.90;;
21886;SDS011;11108;49.988;8.182;2023-12-29T04:40:38;1.90;;;1.20;;
21886;SDS011;11108;49.988;8.182;2023-12-29T04:43:03;0.97;;;0.97;;
21886;SDS011;11108;49.988;8.182;2023-12-29T04:45:28;1.10;;;1.00;;
21886;SDS011;11108;49.988;8.182;2023-12-29T04:47:54;1.00;;;1.00;;
21886;SDS011;11108;49.988;8.182;2023-12-29T04:50:19;1.10;;;1.10;;
21886;SDS011;11108;49.988;8.182;2023-12-29T04:52:44;1.00;;;1.00;;
21886;SDS011;11108;49.988;8.182;2023-12-29T04:55:09;0.90;;;0.90;;
21886;SDS011;11108;49.988;8.182;2023-12-29T04:57:34;1.07;;;1.07;;
21886;SDS011;11108;49.988;8.182;2023-12-29T05:00:00;0.93;;;0.93;;
21886;SDS011;11108;49.988;8.182;2023-12-29T05:02:26;1.37;;;1.07;;
21886;SDS011;11108;49.988;8.182;2023-12-29T05:04:51;0.93;;;0.93;;
21886;SDS011;11108;49.988;8.182;2023-12-29T05:07:16;1.20;;;1.10;;
21886;SDS011;11108;49.988;8.182;2023-12-29T05:09:41;0.97;;;0.97;;
21886;SDS011;11108;49.988;8.182;2023-12-29T05:12:07;0.80;;;0.80;;
21886;SDS011;11108;49.988;8.182;2023-12-29T05:14:32;0.90;;;0.90;;
21886;SDS011;11108;49.988;8.182;2023-12-29T05:16:57;1.23;;;0.90;;
21886;SDS011;11108;49.988;8.182;2023-12-29T05:19:22;1.10;;;1.00;;
21886;SDS011;11108;49.988;8.182;2023-12-29T05:21:47;1.00;;;1.00;;
21886;SDS011;11108;49.988;8.182;2023-12-29T05:24:16;1.20;;;1.10;;
21886;SDS011;11108;49.988;8.182;2023-12-29T05:26:41;0.90;;;0.90;;
21886;SDS011;11108;49.988;8.182;2023-12-29T05:29:06;0.80;;;0.80;;
21886;SDS011;11108;49.988;8.182;2023-12-29T05:31:31;0.90;;;0.90;;
21886;SDS011;11108;49.988;8.182;2023-12-29T05:33:56;1.17;;;0.90;;
21886;SDS011;11108;49.988;8.182;2023-12-29T05:36:21;1.13;;;1.10;;
21886;SDS011;11108;49.988;8.182;2023-12-29T05:38:47;0.93;;;0.93;;
21886;SDS011;11108;49.988;8.182;2023-12-29T05:41:15;1.00;;;1.00;;
21886;SDS011;11108;49.988;8.182;2023-12-29T05:43:40;0.90;;;0.90;;
21886;SDS011;11108;49.988;8.182;2023-12-29T05:46:12;1.07;;;1.07;;
21886;SDS011;11108;49.988;8.182;2023-12-29T05:48:38;0.90;;;0.90;;
21886;SDS011;11108;49.988;8.182;2023-12-29T05:51:10;0.90;;;0.90;;
21886;SDS011;11108;49.988;8.182;2023-12-29T05:53:35;0.80;;;0.80;;
21886;SDS011;11108;49.988;8.182;2023-12-29T05:56:01;0.70;;;0.70;;
21886;SDS011;11108;49.988;8.182;2023-12-29T05:58:26;0.90;;;0.90;;
21886;SDS011;11108;49.988;8.182;2023-12-29T06:00:51;1.53;;;0.90;;
21886;SDS011;11108;49.988;8.182;2023-12-29T06:03:17;0.97;;;0.90;;
21886;SDS011;11108;49.988;8.182;2023-12-29T06:05:43;0.90;;;0.90;;
21886;SDS011;11108;49.988;8.182;2023-12-29T06:08:08;0.80;;;0.80;;
21886;SDS011;11108;49.988;8.182;2023-12-29T06:10:33;1.10;;;1.00;;
21886;SDS011;11108;49.988;8.182;2023-12-29T06:13:01;1.20;;;0.90;;
21886;SDS011;11108;49.988;8.182;2023-12-29T06:15:26;1.13;;;1.10;;
21886;SDS011;11108;49.988;8.182;2023-12-29T06:17:51;1.00;;;1.00;;
21886;SDS011;11108;49.988;8.182;2023-12-29T06:20:16;0.87;;;0.83;;
21886;SDS011;11108;49.988;8.182;2023-12-29T06:22:41;0.83;;;0.83;;
21886;SDS011;11108;49.988;8.182;2023-12-29T06:25:10;0.67;;;0.67;;
21886;SDS011;11108;49.988;8.182;2023-12-29T06:27:36;0.90;;;0.90;;
21886;SDS011;11108;49.988;8.182;2023-12-29T06:30:04;0.87;;;0.87;;
21886;SDS011;11108;49.988;8.182;2023-12-29T06:32:29;0.80;;;0.80;;
21886;SDS011;11108;49.988;8.182;2023-12-29T06:34:55;0.90;;;0.90;;
21886;SDS011;11108;49.988;8.182;2023-12-29T06:37:20;1.20;;;1.20;;
21886;SDS011;11108;49.988;8.182;2023-12-29T06:39:45;1.00;;;1.00;;
21886;SDS011;11108;49.988;8.182;2023-12-29T06:42:10;0.97;;;0.97;;
21886;SDS011;11108;49.988;8.182;2023-12-29T06:44:35;0.90;;;0.90;;
21886;SDS011;11108;49.988;8.182;2023-12-29T06:47:01;1.17;;;0.97;;
21886;SDS011;11108;49.988;8.182;2023-12-29T06:49:26;1.00;;;1.00;;
21886;SDS011;11108;49.988;8.182;2023-12-29T06:51:51;0.70;;;0.70;;
21886;SDS011;11108;49.988;8.182;2023-12-29T06:54:16;0.90;;;0.90;;
21886;SDS011;11108;49.988;8.182;2023-12-29T06:56:41;1.17;;;1.07;;
21886;SDS011;11108;49.988;8.182;2023-12-29T06:59:07;1.00;;;1.00;;
21886;SDS011;11108;49.988;8.182;2023-12-29T07:01:32;1.00;;;1.00;;
21886;SDS011;11108;49.988;8.182;2023-12-29T07:03:57;0.70;;;0.70;;
21886;SDS011;11108;49.988;8.182;2023-12-29T07:06:22;0.97;;;0.97;;
21886;SDS011;11108;49.988;8.182;2023-12-29T07:08:48;1.47;;;0.90;;
21886;SDS011;11108;49.988;8.182;2023-12-29T07:11:13;0.97;;;0.97;;
21886;SDS011;11108;49.988;8.182;2023-12-29T07:13:38;1.23;;;1.10;;
21886;SDS011;11108;49.988;8.182;2023-12-29T07:16:04;1.00;;;1.00;;
21886;SDS011;11108;49.988;8.182;2023-12-29T07:18:29;1.60;;;1.00;;
21886;SDS011;11108;49.988;8.182;2023-12-29T07:20:54;2.83;;;0.97;;
21886;SDS011;11108;49.988;8.182;2023-12-29T07:23:19;0.97;;;0.97;;
21886;SDS011;11108;49.988;8.182;2023-12-29T07:25:45;0.87;;;0.87;;
21886;SDS011;11108;49.988;8.182;2023-12-29T07:28:10;0.90;;;0.90;;
21886;SDS011;11108;49.988;8.182;2023-12-29T07:30:35;0.93;;;0.90;;
21886;SDS011;11108;49.988;8.182;2023-12-29T07:33:00;0.83;;;0.70;;
21886;SDS011;11108;49.988;8.182;2023-12-29T07:35:27;1.93;;;1.00;;
21886;SDS011;11108;49.988;8.182;2023-12-29T07:37:52;0.80;;;0.80;;
21886;SDS011;11108;49.988;8.182;2023-12-29T07:40:17;1.17;;;1.13;;
21886;SDS011;11108;49.988;8.182;2023-12-29T07:42:43;1.17;;;1.00;;
21886;SDS011;11108;49.988;8.182;2023-12-29T07:45:09;1.10;;;1.10;;
21886;SDS011;11108;49.988;8.182;2023-12-29T07:47:34;0.90;;;0.90;;
21886;SDS011;11108;49.988;8.182;2023-12-29T07:50:00;1.67;;;1.20;;
21886;SDS011;11108;49.988;8.182;2023-12-29T07:52:25;1.30;;;0.80;;
21886;SDS011;11108;49.988;8.182;2023-12-29T07:54:50;0.77;;;0.77;;
21886;SDS011;11108;49.988;8.182;2023-12-29T07:57:15;0.90;;;0.90;;
21886;SDS011;11108;49.988;8.182;2023-12-29T07:59:41;1.10;;;1.07;;
21886;SDS011;11108;49.988;8.182;2023-12-29T08:02:06;0.93;;;0.93;;
21886;SDS011;11108;49.988;8.182;2023-12-29T08:04:31;0.90;;;0.90;;
21886;SDS011;11108;49.988;8.182;2023-12-29T08:06:56;0.90;;;0.90;;
21886;SDS011;11108;49.988;8.182;2023-12-29T08:09:22;1.30;;;1.17;;
21886;SDS011;11108;49.988;8.182;2023-12-29T08:11:48;1.73;;;1.17;;
21886;SDS011;11108;49.988;8.182;2023-12-29T08:14:13;1.63;;;1.00;;
21886;SDS011;11108;49.988;8.182;2023-12-29T08:16:39;1.07;;;1.07;;
21886;SDS011;11108;49.988;8.182;2023-12-29T08:19:05;1.33;;;1.23;;
21886;SDS011;11108;49.988;8.182;2023-12-29T08:21:31;1.30;;;1.20;;
21886;SDS011;11108;49.988;8.182;2023-12-29T08:23:56;1.00;;;0.93;;
21886;SDS011;11108;49.988;8.182;2023-12-29T08:26:22;3.67;;;1.33;;
21886;SDS011;11108;49.988;8.182;2023-12-29T08:28:47;0.97;;;0.93;;
21886;SDS011;11108;49.988;8.182;2023-12-29T08:31:14;1.57;;;1.00;;
21886;SDS011;11108;49.988;8.182;2023-12-29T08:33:39;1.50;;;1.40;;
21886;SDS011;11108;49.988;8.182;2023-12-29T08:36:05;5.33;;;1.20;;
21886;SDS011;11108;49.988;8.182;2023-12-29T08:38:31;1.37;;;1.00;;
21886;SDS011;11108;49.988;8.182;2023-12-29T08:40:56;2.50;;;1.00;;
21886;SDS011;11108;49.988;8.182;2023-12-29T08:43:22;2.40;;;1.53;;
21886;SDS011;11108;49.988;8.182;2023-12-29T08:45:47;2.40;;;1.20;;
21886;SDS011;11108;49.988;8.182;2023-12-29T08:48:12;1.20;;;1.10;;
21886;SDS011;11108;49.988;8.182;2023-12-29T08:50:38;2.30;;;1.20;;
21886;SDS011;11108;49.988;8.182;2023-12-29T08:53:03;1.87;;;1.23;;
21886;SDS011;11108;49.988;8.182;2023-12-29T08:55:28;3.53;;;1.43;;
21886;SDS011;11108;49.988;8.182;2023-12-29T08:57:53;2.37;;;1.30;;
21886;SDS011;11108;49.988;8.182;2023-12-29T09:00:19;1.27;;;1.10;;
21886;SDS011;11108;49.988;8.182;2023-12-29T09:02:44;2.40;;;1.20;;
21886;SDS011;11108;49.988;8.182;2023-12-29T09:05:11;1.00;;;1.00;;
21886;SDS011;11108;49.988;8.182;2023-12-29T09:07:36;1.80;;;1.10;;
21886;SDS011;11108;49.988;8.182;2023-12-29T09:10:02;2.43;;;0.97;;
21886;SDS011;11108;49.988;8.182;2023-12-29T09:12:28;1.10;;;1.00;;
21886;SDS011;11108;49.988;8.182;2023-12-29T09:14:53;4.00;;;1.20;;
21886;SDS011;11108;49.988;8.182;2023-12-29T09:17:18;1.07;;;1.07;;
21886;SDS011;11108;49.988;8.182;2023-12-29T09:19:43;1.20;;;1.20;;
21886;SDS011;11108;49.988;8.182;2023-12-29T09:22:09;2.73;;;1.27;;
21886;SDS011;11108;49.988;8.182;2023-12-29T09:24:34;2.10;;;1.20;;
21886;SDS011;11108;49.988;8.182;2023-12-29T09:26:59;3.53;;;1.20;;
21886;SDS011;11108;49.988;8.182;2023-12-29T09:29:24;2.43;;;1.27;;
21886;SDS011;11108;49.988;8.182;2023-12-29T09:31:49;1.80;;;1.23;;
21886;SDS011;11108;49.988;8.182;2023-12-29T09:34:14;2.50;;;1.10;;
21886;SDS011;11108;49.988;8.182;2023-12-29T09:36:40;1.50;;;0.93;;
21886;SDS011;11108;49.988;8.182;2023-12-29T09:39:05;3.47;;;1.20;;
21886;SDS011;11108;49.988;8.182;2023-12-29T09:41:31;1.23;;;1.00;;
21886;SDS011;11108;49.988;8.182;2023-12-29T09:43:58;3.40;;;1.10;;
21886;SDS011;11108;49.988;8.182;2023-12-29T09:46:26;2.73;;;1.10;;
21886;SDS011;11108;49.988;8.182;2023-12-29T09:48:52;1.93;;;0.93;;
21886;SDS011;11108;49.988;8.182;2023-12-29T09:51:20;1.40;;;1.00;;
21886;SDS011;11108;49.988;8.182;2023-12-29T09:53:48;1.77;;;1.30;;
21886;SDS011;11108;49.988;8.182;2023-12-29T09:56:13;2.53;;;1.20;;
21886;SDS011;11108;49.988;8.182;2023-12-29T09:58:39;1.27;;;1.10;;
21886;SDS011;11108;49.988;8.182;2023-12-29T10:01:05;1.00;;;0.90;;
21886;SDS011;11108;49.988;8.182;2023-12-29T10:03:31;1.33;;;1.20;;
21886;SDS011;11108;49.988;8.182;2023-12-29T10:05:56;1.33;;;1.00;;
21886;SDS011;11108;49.988;8.182;2023-12-29T10:08:24;2.40;;;1.30;;
21886;SDS011;11108;49.988;8.182;2023-12-29T10:10:50;2.17;;;1.10;;
21886;SDS011;11108;49.988;8.182;2023-12-29T10:13:16;1.43;;;1.10;;
21886;SDS011;11108;49.988;8.182;2023-12-29T10:15:45;1.23;;;0.90;;
21886;SDS011;11108;49.988;8.182;2023-12-29T10:18:14;1.33;;;1.20;;
21886;SDS011;11108;49.988;8.182;2023-12-29T10:23:32;1.33;;;0.90;;
21886;SDS011;11108;49.988;8.182;2023-12-29T10:26:00;1.10;;;1.10;;
21886;SDS011;11108;49.988;8.182;2023-12-29T10:28:25;2.00;;;1.00;;
21886;SDS011;11108;49.988;8.182;2023-12-29T10:30:50;2.63;;;1.27;;
21886;SDS011;11108;49.988;8.182;2023-12-29T10:33:19;1.10;;;0.80;;
21886;SDS011;11108;49.988;8.182;2023-12-29T10:35:59;1.37;;;0.93;;
21886;SDS011;11108;49.988;8.182;2023-12-29T10:38:32;0.80;;;0.80;;
21886;SDS011;11108;49.988;8.182;2023-12-29T10:41:13;0.90;;;0.90;;
21886;SDS011;11108;49.988;8.182;2023-12-29T10:43:39;1.40;;;0.93;;
21886;SDS011;11108;49.988;8.182;2023-12-29T10:46:05;1.47;;;1.00;;
21886;SDS011;11108;49.988;8.182;2023-12-29T10:48:31;0.90;;;0.87;;
21886;SDS011;11108;49.988;8.182;2023-12-29T10:50:56;0.83;;;0.70;;
21886;SDS011;11108;49.988;8.182;2023-12-29T10:53:22;1.80;;;1.10;;
21886;SDS011;11108;49.988;8.182;2023-12-29T10:55:48;3.30;;;1.10;;
21886;SDS011;11108;49.988;8.182;2023-12-29T10:58:15;1.13;;;1.00;;
21886;SDS011;11108;49.988;8.182;2023-12-29T11:00:40;0.80;;;0.80;;
21886;SDS011;11108;49.988;8.182;2023-12-29T11:03:05;0.80;;;0.80;;
21886;SDS011;11108;49.988;8.182;2023-12-29T11:05:32;0.70;;;0.70;;
21886;SDS011;11108;49.988;8.182;2023-12-29T11:07:58;0.90;;;0.90;;
21886;SDS011;11108;49.988;8.182;2023-12-29T11:10:24;1.93;;;1.10;;
21886;SDS011;11108;49.988;8.182;2023-12-29T11:12:50;0.83;;;0.83;;
21886;SDS011;11108;49.988;8.182;2023-12-29T11:15:17;1.20;;;1.10;;
21886;SDS011;11108;49.988;8.182;2023-12-29T11:17:42;0.67;;;0.67;;
21886;SDS011;11108;49.988;8.182;2023-12-29T11:20:26;1.10;;;1.00;;
21886;SDS011;11108;49.988;8.182;2023-12-29T11:22:51;1.00;;;0.90;;
21886;SDS011;11108;49.988;8.182;2023-12-29T11:25:16;1.07;;;1.07;;
21886;SDS011;11108;49.988;8.182;2023-12-29T11:27:42;0.70;;;0.70;;
21886;SDS011;11108;49.988;8.182;2023-12-29T11:30:07;1.17;;;1.00;;
21886;SDS011;11108;49.988;8.182;2023-12-29T11:32:39;0.90;;;0.90;;
21886;SDS011;11108;49.988;8.182;2023-12-29T11:35:13;0.90;;;0.80;;
21886;SDS011;11108;49.988;8.182;2023-12-29T11:40:18;1.50;;;1.00;;
21886;SDS011;11108;49.988;8.182;2023-12-29T11:42:44;0.83;;;0.83;;
21886;SDS011;11108;49.988;8.182;2023-12-29T11:45:23;1.37;;;1.00;;
21886;SDS011;11108;49.988;8.182;2023-12-29T11:47:49;0.77;;;0.77;;
21886;SDS011;11108;49.988;8.182;2023-12-29T11:50:20;1.80;;;0.90;;
21886;SDS011;11108;49.988;8.182;2023-12-29T11:52:52;0.90;;;0.80;;
21886;SDS011;11108;49.988;8.182;2023-12-29T11:55:18;2.43;;;0.90;;
21886;SDS011;11108;49.988;8.182;2023-12-29T11:57:44;0.77;;;0.77;;
21886;SDS011;11108;49.988;8.182;2023-12-29T12:00:10;1.20;;;0.87;;
21886;SDS011;11108;49.988;8.182;2023-12-29T12:02:35;0.80;;;0.80;;
21886;SDS011;11108;49.988;8.182;2023-12-29T12:05:01;0.70;;;0.70;;
21886;SDS011;11108;49.988;8.182;2023-12-29T12:09:52;1.23;;;0.80;;
21886;SDS011;11108;49.988;8.182;2023-12-29T12:15:03;1.10;;;0.90;;
21886;SDS011;11108;49.988;8.182;2023-12-29T12:19:58;1.30;;;0.80;;
21886;SDS011;11108;49.988;8.182;2023-12-29T12:22:23;0.83;;;0.83;;
21886;SDS011;11108;49.988;8.182;2023-12-29T12:24:50;0.83;;;0.83;;
21886;SDS011;11108;49.988;8.182;2023-12-29T12:27:19;0.43;;;0.43;;
21886;SDS011;11108;49.988;8.182;2023-12-29T12:29:44;0.60;;;0.60;;
21886;SDS011;11108;49.988;8.182;2023-12-29T12:32:15;1.07;;;0.70;;
21886;SDS011;11108;49.988;8.182;2023-12-29T12:34:40;0.80;;;0.80;;
21886;SDS011;11108;49.988;8.182;2023-12-29T12:37:06;0.70;;;0.70;;
21886;SDS011;11108;49.988;8.182;2023-12-29T12:39:39;1.17;;;1.03;;
21886;SDS011;11108;49.988;8.182;2023-12-29T12:42:04;1.77;;;0.77;;
21886;SDS011;11108;49.988;8.182;2023-12-29T12:44:29;0.70;;;0.70;;
21886;SDS011;11108;49.988;8.182;2023-12-29T12:46:56;0.87;;;0.87;;
21886;SDS011;11108;49.988;8.182;2023-12-29T12:49:22;0.73;;;0.70;;
21886;SDS011;11108;49.988;8.182;2023-12-29T12:51:47;1.27;;;0.70;;
21886;SDS011;11108;49.988;8.182;2023-12-29T12:54:13;0.70;;;0.70;;
21886;SDS011;11108;49.988;8.182;2023-12-29T12:56:40;0.60;;;0.60;;
21886;SDS011;11108;49.988;8.182;2023-12-29T12:59:06;0.80;;;0.80;;
21886;SDS011;11108;49.988;8.182;2023-12-29T13:01:34;0.73;;;0.70;;
21886;SDS011;11108;49.988;8.182;2023-12-29T13:04:00;0.93;;;0.80;;
21886;SDS011;11108;49.988;8.182;2023-12-29T13:06:30;3.03;;;1.10;;
21886;SDS011;11108;49.988;8.182;2023-12-29T13:08:56;0.80;;;0.80;;
21886;SDS011;11108;49.988;8.182;2023-12-29T13:11:21;0.93;;;0.70;;
21886;SDS011;11108;49.988;8.182;2023-12-29T13:13:47;0.67;;;0.67;;
21886;SDS011;11108;49.988;8.182;2023-12-29T13:16:12;0.73;;;0.73;;
21886;SDS011;11108;49.988;8.182;2023-12-29T13:18:40;1.03;;;0.80;;
21886;SDS011;11108;49.988;8.182;2023-12-29T13:21:06;0.70;;;0.70;;
21886;SDS011;11108;49.988;8.182;2023-12-29T13:23:31;1.43;;;0.90;;
21886;SDS011;11108;49.988;8.182;2023-12-29T13:25:57;1.60;;;1.00;;
21886;SDS011;11108;49.988;8.182;2023-12-29T13:28:23;1.33;;;0.87;;
21886;SDS011;11108;49.988;8.182;2023-12-29T13:30:50;1.97;;;1.13;;
21886;SDS011;11108;49.988;8.182;2023-12-29T13:33:23;1.57;;;1.00;;
21886;SDS011;11108;49.988;8.182;2023-12-29T13:35:50;1.20;;;1.10;;
21886;SDS011;11108;49.988;8.182;2023-12-29T13:38:20;0.80;;;0.80;;
21886;SDS011;11108;49.988;8.182;2023-12-29T13:40:47;1.03;;;0.80;;
21886;SDS011;11108;49.988;8.182;2023-12-29T13:43:17;3.10;;;0.93;;
21886;SDS011;11108;49.988;8.182;2023-12-29T13:45:43;0.90;;;0.90;;
21886;SDS011;11108;49.988;8.182;2023-12-29T13:48:09;3.03;;;0.97;;
21886;SDS011;11108;49.988;8.182;2023-12-29T13:50:34;1.40;;;1.00;;
21886;SDS011;11108;49.988;8.182;2023-12-29T13:53:00;2.47;;;0.73;;
21886;SDS011;11108;49.988;8.182;2023-12-29T13:55:25;2.47;;;0.90;;
21886;SDS011;11108;49.988;8.182;2023-12-29T13:57:50;2.10;;;1.00;;
21886;SDS011;11108;49.988;8.182;2023-12-29T14:00:16;2.10;;;1.20;;
21886;SDS011;11108;49.988;8.182;2023-12-29T14:02:43;1.87;;;1.23;;
21886;SDS011;11108;49.988;8.182;2023-12-29T14:05:14;1.03;;;1.00;;
21886;SDS011;11108;49.988;8.182;2023-12-29T14:07:45;3.40;;;1.10;;
21886;SDS011;11108;49.988;8.182;2023-12-29T14:10:11;3.70;;;1.10;;
21886;SDS011;11108;49.988;8.182;2023-12-29T14:12:36;1.80;;;1.13;;
21886;SDS011;11108;49.988;8.182;2023-12-29T14:15:04;2.20;;;1.20;;
21886;SDS011;11108;49.988;8.182;2023-12-29T14:17:30;2.57;;;1.10;;
21886;SDS011;11108;49.988;8.182;2023-12-29T14:19:55;3.73;;;1.00;;
21886;SDS011;11108;49.988;8.182;2023-12-29T14:22:25;4.37;;;1.20;;
21886;SDS011;11108;49.988;8.182;2023-12-29T14:25:01;0.70;;;0.70;;
21886;SDS011;11108;49.988;8.182;2023-12-29T14:27:27;2.50;;;0.90;;
21886;SDS011;11108;49.988;8.182;2023-12-29T14:29:52;2.83;;;1.00;;
21886;SDS011;11108;49.988;8.182;2023-12-29T14:32:17;2.80;;;1.20;;
21886;SDS011;11108;49.988;8.182;2023-12-29T14:34:43;1.87;;;0.67;;
21886;SDS011;11108;49.988;8.182;2023-12-29T14:37:11;2.60;;;1.03;;
21886;SDS011;11108;49.988;8.182;2023-12-29T14:39:36;1.50;;;0.80;;
21886;SDS011;11108;49.988;8.182;2023-12-29T14:42:01;1.97;;;0.80;;
21886;SDS011;11108;49.988;8.182;2023-12-29T14:44:27;1.37;;;0.80;;
21886;SDS011;11108;49.988;8.182;2023-12-29T14:46:52;2.70;;;1.03;;
21886;SDS011;11108;49.988;8.182;2023-12-29T14:49:17;4.93;;;1.03;;
21886;SDS011;11108;49.988;8.182;2023-12-29T14:51:42;3.80;;;0.80;;
21886;SDS011;11108;49.988;8.182;2023-12-29T14:54:08;2.10;;;1.10;;
21886;SDS011;11108;49.988;8.182;2023-12-29T14:56:33;4.90;;;1.10;;
21886;SDS011;11108;49.988;8.182;2023-12-29T14:58:58;0.83;;;0.80;;